Sendai, Japan
Current Conditions -  °F | °C
As of 9:00 PM on Tuesday 27 Jan 2015 (Local Time) from RJSS Reporting Station
Few Clouds Few Clouds  
Wind Chill: 33°   Ceiling: Unl
Heat Index: 37°   Visibility: 6mi
Dew Point: 28°   Wind: 6mph
Humidity: 70%   Direction: 330°NNW
Pressure: 29.85"   Gusts: NA
Location:  38.26°N, 140.89°E
Report Text: RJSS 271200Z 33005KT 300V360 9999 FEW020 03/M02 Q1011
Loading
Personal Weather Stations






























Interactive Weather Map New forecast layout! Learn more

10-Day Weather Forecast

Advertisements
Track Severe Weather on mobile